sensor_id;sensor_type;location;lat;lon;timestamp;pressure;altitude;pressure_sealevel;temperature;humidity
42761;BME280;31672;47.638;19.026;2024-02-23T00:03:37;98720.53;;;10.04;59.35
42761;BME280;31672;47.638;19.026;2024-02-23T00:08:40;98720.75;;;10.09;59.25
42761;BME280;31672;47.638;19.026;2024-02-23T00:13:44;98730.53;;;10.08;59.54
42761;BME280;31672;47.638;19.026;2024-02-23T00:18:48;98723.41;;;10.09;59.56
42761;BME280;31672;47.638;19.026;2024-02-23T00:23:51;98719.28;;;10.13;59.50
42761;BME280;31672;47.638;19.026;2024-02-23T00:28:55;98722.16;;;10.18;59.49
42761;BME280;31672;47.638;19.026;2024-02-23T00:34:01;98717.13;;;10.23;59.45
42761;BME280;31672;47.638;19.026;2024-02-23T00:39:06;98710.78;;;10.24;59.41
42761;BME280;31672;47.638;19.026;2024-02-23T00:44:10;98716.31;;;10.29;59.43
42761;BME280;31672;47.638;19.026;2024-02-23T00:49:15;98705.91;;;10.28;59.60
42761;BME280;31672;47.638;19.026;2024-02-23T00:54:19;98712.03;;;10.28;59.91
42761;BME280;31672;47.638;19.026;2024-02-23T00:59:23;98688.94;;;10.29;59.85
42761;BME280;31672;47.638;19.026;2024-02-23T01:04:27;98688.56;;;10.32;59.98
42761;BME280;31672;47.638;19.026;2024-02-23T01:09:30;98685.47;;;10.28;60.04
42761;BME280;31672;47.638;19.026;2024-02-23T01:14:34;98680.16;;;10.28;60.72
42761;BME280;31672;47.638;19.026;2024-02-23T01:19:37;98680.16;;;10.28;61.74
42761;BME280;31672;47.638;19.026;2024-02-23T01:24:41;98673.63;;;10.24;61.50
42761;BME280;31672;47.638;19.026;2024-02-23T01:29:44;98681.56;;;10.24;61.86
42761;BME280;31672;47.638;19.026;2024-02-23T01:34:48;98671.97;;;10.23;62.98
42761;BME280;31672;47.638;19.026;2024-02-23T01:39:52;98652.97;;;10.19;64.41
42761;BME280;31672;47.638;19.026;2024-02-23T01:44:55;98658.44;;;10.05;66.64
42761;BME280;31672;47.638;19.026;2024-02-23T01:49:59;98661.69;;;9.87;69.10
42761;BME280;31672;47.638;19.026;2024-02-23T01:55:04;98660.38;;;9.63;72.23
42761;BME280;31672;47.638;19.026;2024-02-23T02:00:10;98664.00;;;9.42;75.33
42761;BME280;31672;47.638;19.026;2024-02-23T02:05:16;98658.22;;;9.25;77.91
42761;BME280;31672;47.638;19.026;2024-02-23T02:10:20;98661.00;;;9.17;79.47
42761;BME280;31672;47.638;19.026;2024-02-23T02:15:24;98659.13;;;9.11;81.99
42761;BME280;31672;47.638;19.026;2024-02-23T02:20:28;98663.59;;;9.04;82.37
42761;BME280;31672;47.638;19.026;2024-02-23T02:25:35;98667.25;;;9.03;83.37
42761;BME280;31672;47.638;19.026;2024-02-23T02:30:38;98662.97;;;9.02;84.05
42761;BME280;31672;47.638;19.026;2024-02-23T02:35:41;98660.91;;;8.97;84.90
42761;BME280;31672;47.638;19.026;2024-02-23T02:40:45;98656.00;;;8.94;86.73
42761;BME280;31672;47.638;19.026;2024-02-23T02:45:48;98664.28;;;8.84;87.77
42761;BME280;31672;47.638;19.026;2024-02-23T02:50:52;98668.09;;;8.75;91.60
42761;BME280;31672;47.638;19.026;2024-02-23T02:55:57;98681.06;;;8.64;94.57
42761;BME280;31672;47.638;19.026;2024-02-23T03:01:00;98669.75;;;8.48;96.83
42761;BME280;31672;47.638;19.026;2024-02-23T03:06:04;98669.53;;;8.28;99.64
42761;BME280;31672;47.638;19.026;2024-02-23T03:11:08;98684.84;;;8.12;100.00
42761;BME280;31672;47.638;19.026;2024-02-23T03:16:19;98670.84;;;7.96;100.00
42761;BME280;31672;47.638;19.026;2024-02-23T03:21:24;98685.22;;;7.87;100.00
42761;BME280;31672;47.638;19.026;2024-02-23T03:26:27;98686.06;;;7.73;100.00
42761;BME280;31672;47.638;19.026;2024-02-23T03:31:31;98685.72;;;7.61;100.00
42761;BME280;31672;47.638;19.026;2024-02-23T03:36:36;98689.94;;;7.56;100.00
42761;BME280;31672;47.638;19.026;2024-02-23T03:41:39;98689.75;;;7.57;100.00
42761;BME280;31672;47.638;19.026;2024-02-23T03:46:43;98688.75;;;7.58;100.00
42761;BME280;31672;47.638;19.026;2024-02-23T03:51:47;98678.09;;;7.51;100.00
42761;BME280;31672;47.638;19.026;2024-02-23T03:56:51;98686.59;;;7.47;100.00
42761;BME280;31672;47.638;19.026;2024-02-23T04:01:56;98681.91;;;7.49;100.00
42761;BME280;31672;47.638;19.026;2024-02-23T04:06:59;98688.41;;;7.46;100.00
42761;BME280;31672;47.638;19.026;2024-02-23T04:12:03;98685.13;;;7.44;100.00
42761;BME280;31672;47.638;19.026;2024-02-23T04:17:07;98678.03;;;7.45;100.00
42761;BME280;31672;47.638;19.026;2024-02-23T04:22:10;98691.50;;;7.50;100.00
42761;BME280;31672;47.638;19.026;2024-02-23T04:27:14;98671.63;;;7.54;100.00
42761;BME280;31672;47.638;19.026;2024-02-23T04:32:17;98690.03;;;7.62;100.00
42761;BME280;31672;47.638;19.026;2024-02-23T04:37:21;98677.06;;;7.67;100.00
42761;BME280;31672;47.638;19.026;2024-02-23T04:42:25;98683.25;;;7.74;100.00
42761;BME280;31672;47.638;19.026;2024-02-23T04:47:28;98687.97;;;7.79;100.00
42761;BME280;31672;47.638;19.026;2024-02-23T04:52:32;98688.41;;;7.83;100.00
42761;BME280;31672;47.638;19.026;2024-02-23T04:57:37;98686.03;;;7.88;100.00
42761;BME280;31672;47.638;19.026;2024-02-23T05:02:41;98687.94;;;7.94;100.00
42761;BME280;31672;47.638;19.026;2024-02-23T05:07:44;98685.81;;;8.04;100.00
42761;BME280;31672;47.638;19.026;2024-02-23T05:12:49;98706.22;;;8.10;100.00
42761;BME280;31672;47.638;19.026;2024-02-23T05:17:52;98706.22;;;8.10;100.00
42761;BME280;31672;47.638;19.026;2024-02-23T05:22:56;98714.03;;;8.18;100.00
42761;BME280;31672;47.638;19.026;2024-02-23T05:27:59;98720.53;;;8.16;100.00
42761;BME280;31672;47.638;19.026;2024-02-23T05:33:02;98728.75;;;8.06;100.00
42761;BME280;31672;47.638;19.026;2024-02-23T05:38:06;98743.09;;;7.97;100.00
42761;BME280;31672;47.638;19.026;2024-02-23T05:43:10;98753.16;;;7.87;100.00
42761;BME280;31672;47.638;19.026;2024-02-23T05:48:13;98775.69;;;7.83;100.00
42761;BME280;31672;47.638;19.026;2024-02-23T05:53:17;98772.97;;;7.76;100.00
42761;BME280;31672;47.638;19.026;2024-02-23T05:58:20;98805.50;;;7.76;100.00
42761;BME280;31672;47.638;19.026;2024-02-23T06:03:24;98819.47;;;7.70;100.00
42761;BME280;31672;47.638;19.026;2024-02-23T06:08:27;98829.78;;;7.65;100.00
42761;BME280;31672;47.638;19.026;2024-02-23T06:13:31;98815.03;;;7.56;100.00
42761;BME280;31672;47.638;19.026;2024-02-23T06:18:34;98835.69;;;7.53;100.00
42761;BME280;31672;47.638;19.026;2024-02-23T06:23:37;98842.34;;;7.48;100.00
42761;BME280;31672;47.638;19.026;2024-02-23T06:28:43;98844.16;;;7.48;100.00
42761;BME280;31672;47.638;19.026;2024-02-23T06:33:46;98847.53;;;7.42;100.00
42761;BME280;31672;47.638;19.026;2024-02-23T06:38:52;98854.63;;;7.41;100.00
42761;BME280;31672;47.638;19.026;2024-02-23T06:43:56;98853.81;;;7.41;100.00
42761;BME280;31672;47.638;19.026;2024-02-23T06:48:59;98858.75;;;7.44;100.00
42761;BME280;31672;47.638;19.026;2024-02-23T06:54:03;98855.47;;;7.42;100.00
42761;BME280;31672;47.638;19.026;2024-02-23T06:59:08;98866.84;;;7.42;100.00
42761;BME280;31672;47.638;19.026;2024-02-23T07:04:12;98871.97;;;7.44;100.00
42761;BME280;31672;47.638;19.026;2024-02-23T07:09:17;98866.84;;;7.42;100.00
42761;BME280;31672;47.638;19.026;2024-02-23T07:14:20;98873.78;;;7.43;100.00
42761;BME280;31672;47.638;19.026;2024-02-23T07:19:25;98870.31;;;7.43;100.00
42761;BME280;31672;47.638;19.026;2024-02-23T07:24:28;98881.16;;;7.48;100.00
42761;BME280;31672;47.638;19.026;2024-02-23T07:29:32;98876.69;;;7.48;100.00
42761;BME280;31672;47.638;19.026;2024-02-23T07:34:35;98881.84;;;7.50;100.00
42761;BME280;31672;47.638;19.026;2024-02-23T07:39:39;98871.88;;;7.52;100.00
42761;BME280;31672;47.638;19.026;2024-02-23T07:44:42;98872.50;;;7.54;100.00
42761;BME280;31672;47.638;19.026;2024-02-23T07:49:46;98871.78;;;7.60;100.00
42761;BME280;31672;47.638;19.026;2024-02-23T07:54:54;98877.75;;;7.62;100.00
42761;BME280;31672;47.638;19.026;2024-02-23T07:59:58;98893.84;;;7.67;100.00
42761;BME280;31672;47.638;19.026;2024-02-23T08:05:01;98893.69;;;7.69;100.00
42761;BME280;31672;47.638;19.026;2024-02-23T08:10:06;98905.09;;;7.69;100.00
42761;BME280;31672;47.638;19.026;2024-02-23T08:15:11;98906.72;;;7.70;100.00
42761;BME280;31672;47.638;19.026;2024-02-23T08:20:15;98904.44;;;7.67;100.00
42761;BME280;31672;47.638;19.026;2024-02-23T08:25:18;98913.66;;;7.71;100.00
42761;BME280;31672;47.638;19.026;2024-02-23T08:30:22;98908.03;;;7.74;100.00
42761;BME280;31672;47.638;19.026;2024-02-23T08:35:26;98909.66;;;7.75;100.00
42761;BME280;31672;47.638;19.026;2024-02-23T08:40:30;98898.91;;;7.77;100.00
42761;BME280;31672;47.638;19.026;2024-02-23T08:45:33;98912.88;;;7.86;100.00
42761;BME280;31672;47.638;19.026;2024-02-23T08:50:37;98913.13;;;7.91;100.00
42761;BME280;31672;47.638;19.026;2024-02-23T08:55:42;98922.34;;;7.95;100.00
42761;BME280;31672;47.638;19.026;2024-02-23T09:00:45;98914.06;;;7.98;100.00
42761;BME280;31672;47.638;19.026;2024-02-23T09:05:49;98912.66;;;8.02;100.00
42761;BME280;31672;47.638;19.026;2024-02-23T09:10:53;98906.91;;;8.13;100.00
42761;BME280;31672;47.638;19.026;2024-02-23T09:15:56;98924.34;;;8.22;100.00
42761;BME280;31672;47.638;19.026;2024-02-23T09:21:00;98928.63;;;8.38;100.00
42761;BME280;31672;47.638;19.026;2024-02-23T09:26:09;98944.69;;;8.51;100.00
42761;BME280;31672;47.638;19.026;2024-02-23T09:31:16;98931.97;;;8.62;100.00
42761;BME280;31672;47.638;19.026;2024-02-23T09:36:20;98917.38;;;8.66;100.00
42761;BME280;31672;47.638;19.026;2024-02-23T09:41:24;98918.25;;;8.73;100.00
42761;BME280;31672;47.638;19.026;2024-02-23T09:46:28;98918.78;;;8.83;100.00
42761;BME280;31672;47.638;19.026;2024-02-23T09:51:34;98938.47;;;8.95;100.00
42761;BME280;31672;47.638;19.026;2024-02-23T09:56:39;98933.25;;;9.02;100.00
42761;BME280;31672;47.638;19.026;2024-02-23T10:01:44;98945.19;;;9.13;100.00
42761;BME280;31672;47.638;19.026;2024-02-23T10:06:48;98936.53;;;9.25;100.00
42761;BME280;31672;47.638;19.026;2024-02-23T10:11:53;98917.31;;;9.45;100.00
42761;BME280;31672;47.638;19.026;2024-02-23T10:16:57;98931.31;;;9.60;100.00
42761;BME280;31672;47.638;19.026;2024-02-23T10:22:00;98937.59;;;9.80;100.00
42761;BME280;31672;47.638;19.026;2024-02-23T10:27:04;98951.66;;;10.09;100.00
42761;BME280;31672;47.638;19.026;2024-02-23T10:32:12;98946.03;;;10.25;99.58
42761;BME280;31672;47.638;19.026;2024-02-23T10:37:18;98952.59;;;10.29;95.85
42761;BME280;31672;47.638;19.026;2024-02-23T10:42:23;98940.00;;;10.38;96.91
42761;BME280;31672;47.638;19.026;2024-02-23T10:47:31;98949.19;;;10.42;96.83
42761;BME280;31672;47.638;19.026;2024-02-23T10:52:35;98947.81;;;10.53;99.07
42761;BME280;31672;47.638;19.026;2024-02-23T10:57:39;98949.22;;;10.49;94.26
42761;BME280;31672;47.638;19.026;2024-02-23T11:02:51;98942.00;;;10.29;91.85
42761;BME280;31672;47.638;19.026;2024-02-23T11:07:58;98948.47;;;10.20;91.15
42761;BME280;31672;47.638;19.026;2024-02-23T11:13:01;98953.69;;;10.13;91.76
42761;BME280;31672;47.638;19.026;2024-02-23T11:18:30;98955.16;;;10.16;92.39
42761;BME280;31672;47.638;19.026;2024-02-23T11:23:48;98971.91;;;10.16;92.14
42761;BME280;31672;47.638;19.026;2024-02-23T11:28:53;98952.75;;;10.21;90.92
42761;BME280;31672;47.638;19.026;2024-02-23T11:33:57;98946.72;;;10.34;89.99
42761;BME280;31672;47.638;19.026;2024-02-23T11:39:02;98947.81;;;10.53;89.19
42761;BME280;31672;47.638;19.026;2024-02-23T11:44:06;98950.75;;;10.71;90.54
42761;BME280;31672;47.638;19.026;2024-02-23T11:49:10;98945.91;;;10.94;91.24
42761;BME280;31672;47.638;19.026;2024-02-23T11:54:14;98936.34;;;11.07;91.18
42761;BME280;31672;47.638;19.026;2024-02-23T11:59:20;98932.06;;;11.19;88.55
42761;BME280;31672;47.638;19.026;2024-02-23T12:04:26;98920.63;;;11.45;87.92
42761;BME280;31672;47.638;19.026;2024-02-23T12:09:30;98925.53;;;11.68;87.36
42761;BME280;31672;47.638;19.026;2024-02-23T12:14:36;98923.88;;;11.73;85.54
42761;BME280;31672;47.638;19.026;2024-02-23T12:19:40;98928.59;;;11.78;84.01
42761;BME280;31672;47.638;19.026;2024-02-23T12:24:45;98924.31;;;11.77;84.13
42761;BME280;31672;47.638;19.026;2024-02-23T12:29:53;98935.97;;;11.76;84.38
42761;BME280;31672;47.638;19.026;2024-02-23T12:34:56;98926.56;;;11.73;84.57
42761;BME280;31672;47.638;19.026;2024-02-23T12:40:00;98925.53;;;11.81;86.68
42761;BME280;31672;47.638;19.026;2024-02-23T12:45:04;98932.06;;;11.78;87.35
42761;BME280;31672;47.638;19.026;2024-02-23T12:50:08;98931.88;;;11.60;84.25
42761;BME280;31672;47.638;19.026;2024-02-23T12:55:11;98921.84;;;11.49;86.85
42761;BME280;31672;47.638;19.026;2024-02-23T13:00:15;98930.03;;;11.28;87.19
42761;BME280;31672;47.638;19.026;2024-02-23T13:05:19;98929.78;;;11.09;88.54
42761;BME280;31672;47.638;19.026;2024-02-23T13:10:22;98931.00;;;10.93;90.65
42761;BME280;31672;47.638;19.026;2024-02-23T13:15:26;98928.94;;;10.82;92.50
42761;BME280;31672;47.638;19.026;2024-02-23T13:20:29;98945.06;;;10.74;94.23
42761;BME280;31672;47.638;19.026;2024-02-23T13:25:33;98937.66;;;10.63;96.09
42761;BME280;31672;47.638;19.026;2024-02-23T13:30:37;98942.50;;;10.53;97.48
42761;BME280;31672;47.638;19.026;2024-02-23T13:35:40;98949.19;;;10.42;98.48
42761;BME280;31672;47.638;19.026;2024-02-23T13:40:44;98938.13;;;10.32;99.34
42761;BME280;31672;47.638;19.026;2024-02-23T13:45:53;98931.38;;;10.29;100.00
42761;BME280;31672;47.638;19.026;2024-02-23T13:50:56;98923.97;;;10.25;100.00
42761;BME280;31672;47.638;19.026;2024-02-23T13:56:00;98920.34;;;10.26;100.00
42761;BME280;31672;47.638;19.026;2024-02-23T14:01:04;98920.34;;;10.26;100.00
42761;BME280;31672;47.638;19.026;2024-02-23T14:06:08;98921.16;;;10.26;100.00
42761;BME280;31672;47.638;19.026;2024-02-23T14:11:12;98921.78;;;10.28;100.00
42761;BME280;31672;47.638;19.026;2024-02-23T14:16:17;98919.13;;;10.28;100.00
42761;BME280;31672;47.638;19.026;2024-02-23T14:21:21;98922.78;;;10.27;100.00
42761;BME280;31672;47.638;19.026;2024-02-23T14:26:26;98920.94;;;10.28;100.00
42761;BME280;31672;47.638;19.026;2024-02-23T14:31:29;98922.53;;;10.22;100.00
42761;BME280;31672;47.638;19.026;2024-02-23T14:36:32;98925.97;;;10.16;100.00
42761;BME280;31672;47.638;19.026;2024-02-23T14:41:38;98919.41;;;10.12;100.00
42761;BME280;31672;47.638;19.026;2024-02-23T14:46:42;98922.03;;;10.05;100.00
42761;BME280;31672;47.638;19.026;2024-02-23T14:51:46;98915.03;;;9.98;100.00
42761;BME280;31672;47.638;19.026;2024-02-23T14:56:51;98916.03;;;9.90;100.00
42761;BME280;31672;47.638;19.026;2024-02-23T15:01:55;98913.75;;;9.87;100.00
42761;BME280;31672;47.638;19.026;2024-02-23T15:06:58;98910.22;;;9.80;100.00
42761;BME280;31672;47.638;19.026;2024-02-23T15:12:04;98915.91;;;9.77;100.00
42761;BME280;31672;47.638;19.026;2024-02-23T15:17:07;98907.09;;;9.70;100.00
42761;BME280;31672;47.638;19.026;2024-02-23T15:22:11;98904.03;;;9.66;100.00
42761;BME280;31672;47.638;19.026;2024-02-23T15:27:19;98907.25;;;9.61;100.00
42761;BME280;31672;47.638;19.026;2024-02-23T15:32:22;98900.44;;;9.52;100.00
42761;BME280;31672;47.638;19.026;2024-02-23T15:37:26;98909.56;;;9.43;100.00
42761;BME280;31672;47.638;19.026;2024-02-23T15:42:30;98909.13;;;9.39;100.00
42761;BME280;31672;47.638;19.026;2024-02-23T15:47:33;98917.47;;;9.36;100.00
42761;BME280;31672;47.638;19.026;2024-02-23T15:52:37;98911.91;;;9.31;100.00
42761;BME280;31672;47.638;19.026;2024-02-23T15:57:41;98914.31;;;9.26;100.00
42761;BME280;31672;47.638;19.026;2024-02-23T16:02:44;98912.41;;;9.20;100.00
42761;BME280;31672;47.638;19.026;2024-02-23T16:07:47;98917.66;;;9.14;100.00
42761;BME280;31672;47.638;19.026;2024-02-23T16:12:51;98914.13;;;9.06;100.00
42761;BME280;31672;47.638;19.026;2024-02-23T16:17:55;98916.47;;;8.95;100.00
42761;BME280;31672;47.638;19.026;2024-02-23T16:22:59;98911.91;;;8.89;100.00
42761;BME280;31672;47.638;19.026;2024-02-23T16:28:04;98922.25;;;8.83;100.00
42761;BME280;31672;47.638;19.026;2024-02-23T16:33:07;98914.25;;;8.77;100.00
42761;BME280;31672;47.638;19.026;2024-02-23T16:38:11;98910.50;;;8.71;100.00
42761;BME280;31672;47.638;19.026;2024-02-23T16:43:15;98919.00;;;8.67;100.00
42761;BME280;31672;47.638;19.026;2024-02-23T16:48:19;98919.94;;;8.59;100.00
42761;BME280;31672;47.638;19.026;2024-02-23T16:53:22;98921.31;;;8.55;100.00
42761;BME280;31672;47.638;19.026;2024-02-23T16:58:29;98923.34;;;8.53;100.00
42761;BME280;31672;47.638;19.026;2024-02-23T17:03:36;98929.81;;;8.50;100.00
42761;BME280;31672;47.638;19.026;2024-02-23T17:08:39;98925.25;;;8.44;100.00
42761;BME280;31672;47.638;19.026;2024-02-23T17:13:43;98930.75;;;8.43;100.00
42761;BME280;31672;47.638;19.026;2024-02-23T17:18:47;98932.09;;;8.39;100.00
42761;BME280;31672;47.638;19.026;2024-02-23T17:23:52;98928.19;;;8.35;100.00
42761;BME280;31672;47.638;19.026;2024-02-23T17:28:55;98937.59;;;8.37;100.00
42761;BME280;31672;47.638;19.026;2024-02-23T17:33:59;98924.72;;;8.34;100.00
42761;BME280;31672;47.638;19.026;2024-02-23T17:39:02;98923.22;;;8.31;100.00
42761;BME280;31672;47.638;19.026;2024-02-23T17:44:06;98911.75;;;8.24;100.00
42761;BME280;31672;47.638;19.026;2024-02-23T17:49:09;98915.22;;;8.25;100.00
42761;BME280;31672;47.638;19.026;2024-02-23T17:54:13;98911.47;;;8.19;100.00
42761;BME280;31672;47.638;19.026;2024-02-23T17:59:16;98905.84;;;8.22;100.00
42761;BME280;31672;47.638;19.026;2024-02-23T18:04:20;98898.25;;;8.19;100.00
42761;BME280;31672;47.638;19.026;2024-02-23T18:09:25;98887.22;;;8.16;100.00
42761;BME280;31672;47.638;19.026;2024-02-23T18:14:29;98883.56;;;8.17;100.00
42761;BME280;31672;47.638;19.026;2024-02-23T18:19:35;98887.22;;;8.16;100.00
42761;BME280;31672;47.638;19.026;2024-02-23T18:24:39;98872.72;;;8.12;100.00
42761;BME280;31672;47.638;19.026;2024-02-23T18:29:44;98878.81;;;8.12;100.00
42761;BME280;31672;47.638;19.026;2024-02-23T18:34:47;98877.19;;;8.11;100.00
42761;BME280;31672;47.638;19.026;2024-02-23T18:39:50;98860.41;;;8.04;100.00
42761;BME280;31672;47.638;19.026;2024-02-23T18:44:55;98865.50;;;8.05;100.00
42761;BME280;31672;47.638;19.026;2024-02-23T18:50:02;98845.91;;;8.00;100.00
42761;BME280;31672;47.638;19.026;2024-02-23T18:55:06;98840.97;;;7.97;100.00
42761;BME280;31672;47.638;19.026;2024-02-23T19:00:10;98848.47;;;7.93;100.00
42761;BME280;31672;47.638;19.026;2024-02-23T19:05:15;98853.94;;;7.92;100.00
42761;BME280;31672;47.638;19.026;2024-02-23T19:10:18;98840.72;;;7.92;100.00
42761;BME280;31672;47.638;19.026;2024-02-23T19:15:23;98849.47;;;7.92;100.00
42761;BME280;31672;47.638;19.026;2024-02-23T19:20:26;98842.72;;;7.90;100.00
42761;BME280;31672;47.638;19.026;2024-02-23T19:25:30;98826.41;;;7.86;100.00
42761;BME280;31672;47.638;19.026;2024-02-23T19:30:33;98815.81;;;7.86;100.00
42761;BME280;31672;47.638;19.026;2024-02-23T19:35:37;98831.03;;;7.84;100.00
42761;BME280;31672;47.638;19.026;2024-02-23T19:40:42;98837.34;;;7.83;100.00
42761;BME280;31672;47.638;19.026;2024-02-23T19:45:45;98827.56;;;7.84;100.00
42761;BME280;31672;47.638;19.026;2024-02-23T19:50:56;98821.13;;;7.86;100.00
42761;BME280;31672;47.638;19.026;2024-02-23T19:56:00;98820.19;;;7.79;100.00
42761;BME280;31672;47.638;19.026;2024-02-23T20:01:03;98831.97;;;7.76;100.00
42761;BME280;31672;47.638;19.026;2024-02-23T20:06:07;98831.97;;;7.76;100.00
42761;BME280;31672;47.638;19.026;2024-02-23T20:11:16;98815.47;;;7.74;100.00
42761;BME280;31672;47.638;19.026;2024-02-23T20:16:22;98829.78;;;7.80;100.00
42761;BME280;31672;47.638;19.026;2024-02-23T20:21:26;98825.13;;;7.82;100.00
42761;BME280;31672;47.638;19.026;2024-02-23T20:26:30;98826.69;;;7.76;100.00
42761;BME280;31672;47.638;19.026;2024-02-23T20:31:33;98809.59;;;7.79;100.00
42761;BME280;31672;47.638;19.026;2024-02-23T20:36:42;98812.91;;;7.81;100.00
42761;BME280;31672;47.638;19.026;2024-02-23T20:41:46;98811.28;;;7.80;100.00
42761;BME280;31672;47.638;19.026;2024-02-23T20:46:53;98804.50;;;7.77;100.00
42761;BME280;31672;47.638;19.026;2024-02-23T20:51:56;98806.25;;;7.70;100.00
42761;BME280;31672;47.638;19.026;2024-02-23T20:57:00;98811.53;;;7.70;100.00
42761;BME280;31672;47.638;19.026;2024-02-23T21:02:07;98824.38;;;7.73;100.00
42761;BME280;31672;47.638;19.026;2024-02-23T21:07:11;98822.19;;;7.77;100.00
42761;BME280;31672;47.638;19.026;2024-02-23T21:12:15;98818.75;;;7.76;100.00
42761;BME280;31672;47.638;19.026;2024-02-23T21:17:19;98818.94;;;7.75;100.00
42761;BME280;31672;47.638;19.026;2024-02-23T21:22:22;98819.38;;;7.78;100.00
42761;BME280;31672;47.638;19.026;2024-02-23T21:27:26;98819.75;;;7.75;100.00
42761;BME280;31672;47.638;19.026;2024-02-23T21:32:29;98838.59;;;7.72;100.00
42761;BME280;31672;47.638;19.026;2024-02-23T21:37:34;98838.81;;;7.71;100.00
42761;BME280;31672;47.638;19.026;2024-02-23T21:42:40;98827.75;;;7.67;100.00
42761;BME280;31672;47.638;19.026;2024-02-23T21:47:43;98831.88;;;7.70;100.00
42761;BME280;31672;47.638;19.026;2024-02-23T21:52:47;98835.88;;;7.66;100.00
42761;BME280;31672;47.638;19.026;2024-02-23T21:57:51;98833.50;;;7.71;100.00
42761;BME280;31672;47.638;19.026;2024-02-23T22:02:54;98827.41;;;7.70;100.00
42761;BME280;31672;47.638;19.026;2024-02-23T22:07:58;98825.78;;;7.69;100.00
42761;BME280;31672;47.638;19.026;2024-02-23T22:13:02;98825.78;;;7.69;100.00
42761;BME280;31672;47.638;19.026;2024-02-23T22:18:05;98826.13;;;7.66;100.00
42761;BME280;31672;47.638;19.026;2024-02-23T22:23:09;98834.72;;;7.68;100.00
42761;BME280;31672;47.638;19.026;2024-02-23T22:28:13;98831.88;;;7.70;100.00
42761;BME280;31672;47.638;19.026;2024-02-23T22:33:17;98835.53;;;7.69;100.00
42761;BME280;31672;47.638;19.026;2024-02-23T22:38:22;98838.16;;;7.69;100.00
42761;BME280;31672;47.638;19.026;2024-02-23T22:43:25;98837.34;;;7.68;100.00
42761;BME280;31672;47.638;19.026;2024-02-23T22:48:30;98827.59;;;7.69;100.00
42761;BME280;31672;47.638;19.026;2024-02-23T22:53:34;98836.34;;;7.69;100.00
42761;BME280;31672;47.638;19.026;2024-02-23T22:58:38;98827.75;;;7.67;100.00
42761;BME280;31672;47.638;19.026;2024-02-23T23:03:41;98841.81;;;7.68;100.00
42761;BME280;31672;47.638;19.026;2024-02-23T23:08:45;98811.19;;;7.59;100.00
42761;BME280;31672;47.638;19.026;2024-02-23T23:13:49;98821.31;;;7.70;100.00
42761;BME280;31672;47.638;19.026;2024-02-23T23:18:52;98817.03;;;7.69;100.00
42761;BME280;31672;47.638;19.026;2024-02-23T23:23:57;98813.56;;;7.68;100.00
42761;BME280;31672;47.638;19.026;2024-02-23T23:29:01;98820.00;;;7.66;100.00
42761;BME280;31672;47.638;19.026;2024-02-23T23:34:04;98822.66;;;7.66;100.00
42761;BME280;31672;47.638;19.026;2024-02-23T23:39:08;98828.13;;;7.64;100.00
42761;BME280;31672;47.638;19.026;2024-02-23T23:44:11;98818.91;;;7.60;100.00
42761;BME280;31672;47.638;19.026;2024-02-23T23:49:15;98826.84;;;7.60;100.00
42761;BME280;31672;47.638;19.026;2024-02-23T23:54:18;98828.88;;;7.58;100.00
42761;BME280;31672;47.638;19.026;2024-02-23T23:59:22;98825.59;;;7.56;100.00
